Time;durP1;ratioP1;P1;durP2;ratioP2;P2;SDS_P1;SDS_P2;PMS_P1;PMS_P2;Temp;Humidity;BMP_temperature;BMP_pressure;BME280_temperature;BME280_humidity;BME280_pressure;Samples;Min_cycle;Max_cycle;Signal;HPM_P1;HPM_P2
2023/05/26 00:00:46;;;;;;;48.20;31.10;;;;;;;-128.00;-1.00;-1.00;105463;1253;1005772;-79
2023/05/26 00:03:22;;;;;;;53.10;33.10;;;;;;;-128.00;-1.00;-1.00;105408;1254;1045971;-79
2023/05/26 00:05:49;;;;;;;56.20;32.80;;;;;;;-128.00;-1.00;-1.00;105462;1254;1003479;-79
2023/05/26 00:08:15;;;;;;;52.10;32.40;;;;;;;-128.00;-1.00;-1.00;105445;1254;1004089;-76
2023/05/26 00:10:42;;;;;;;54.50;34.40;;;;;;;-128.00;-1.00;-1.00;105439;1254;1004977;-79
2023/05/26 00:13:08;;;;;;;52.20;35.10;;;;;;;-128.00;-1.00;-1.00;105435;1253;1003740;-79
2023/05/26 00:15:35;;;;;;;49.00;32.40;;;;;;;-128.00;-1.00;-1.00;105425;1254;1004167;-79
2023/05/26 00:18:01;;;;;;;56.20;34.00;;;;;;;-128.00;-1.00;-1.00;105440;1254;1004231;-77
2023/05/26 00:20:28;;;;;;;56.90;33.20;;;;;;;-128.00;-1.00;-1.00;105478;1253;1003688;-79
2023/05/26 00:22:54;;;;;;;57.90;33.00;;;;;;;-128.00;-1.00;-1.00;105438;1253;1003543;-79
2023/05/26 00:25:22;;;;;;;58.90;34.50;;;;;;;-128.00;-1.00;-1.00;105441;1254;1005237;-79
2023/05/26 00:27:49;;;;;;;60.80;36.40;;;;;;;-128.00;-1.00;-1.00;105438;1253;1004529;-77
2023/05/26 00:30:15;;;;;;;57.10;33.50;;;;;;;-128.00;-1.00;-1.00;105430;1253;1004535;-79
2023/05/26 00:32:42;;;;;;;61.60;34.20;;;;;;;-128.00;-1.00;-1.00;105497;1254;1005128;-77
2023/05/26 00:35:08;;;;;;;53.20;32.40;;;;;;;-128.00;-1.00;-1.00;105539;1253;1003864;-78
2023/05/26 00:37:35;;;;;;;51.80;32.20;;;;;;;-128.00;-1.00;-1.00;105495;1253;1004203;-79
2023/05/26 00:40:01;;;;;;;50.30;31.80;;;;;;;-128.00;-1.00;-1.00;105340;1254;1005367;-79
2023/05/26 00:42:27;;;;;;;53.10;30.60;;;;;;;-128.00;-1.00;-1.00;105515;1254;1004685;-77
2023/05/26 00:44:54;;;;;;;57.40;33.30;;;;;;;-128.00;-1.00;-1.00;105513;1254;1005399;-79
2023/05/26 00:47:20;;;;;;;53.80;32.20;;;;;;;-128.00;-1.00;-1.00;105479;1253;1003830;-78
2023/05/26 00:49:48;;;;;;;54.90;34.90;;;;;;;-128.00;-1.00;-1.00;105428;1254;1005027;-77
2023/05/26 00:52:14;;;;;;;54.90;33.70;;;;;;;-128.00;-1.00;-1.00;105442;1253;1004683;-77
2023/05/26 00:54:40;;;;;;;54.50;33.70;;;;;;;-128.00;-1.00;-1.00;105295;1254;1004510;-79
2023/05/26 00:57:07;;;;;;;51.60;31.00;;;;;;;-128.00;-1.00;-1.00;105324;1254;1004658;-77
2023/05/26 00:59:34;;;;;;;49.80;31.60;;;;;;;-128.00;-1.00;-1.00;105445;1254;1003938;-77
2023/05/26 01:02:00;;;;;;;45.80;30.00;;;;;;;-128.00;-1.00;-1.00;105207;1254;1003831;-77
2023/05/26 01:04:27;;;;;;;49.70;30.80;;;;;;;-128.00;-1.00;-1.00;105223;1254;1003922;-76
2023/05/26 01:06:55;;;;;;;51.70;30.00;;;;;;;-128.00;-1.00;-1.00;105434;1253;1004062;-77
2023/05/26 01:09:21;;;;;;;54.00;29.00;;;;;;;-128.00;-1.00;-1.00;105420;1254;1004247;-77
2023/05/26 01:12:03;;;;;;;54.60;31.60;;;;;;;-128.00;-1.00;-1.00;105333;1254;1004203;-77
2023/05/26 01:14:41;;;;;;;52.30;28.30;;;;;;;-128.00;-1.00;-1.00;105451;1254;1058164;-79
2023/05/26 01:17:12;;;;;;;49.80;32.30;;;;;;;-128.00;-1.00;-1.00;105444;1254;1046337;-77
2023/05/26 01:19:46;;;;;;;51.10;32.70;;;;;;;-128.00;-1.00;-1.00;105441;1254;1046596;-79
2023/05/26 01:22:51;;;;;;;54.30;33.00;;;;;;;-128.00;-1.00;-1.00;105597;1253;1061058;-79
2023/05/26 01:25:33;;;;;;;61.10;33.40;;;;;;;-128.00;-1.00;-1.00;105251;1254;1059806;-77
2023/05/26 01:28:09;;;;;;;51.30;30.10;;;;;;;-128.00;-1.00;-1.00;105564;1254;1059790;-79
2023/05/26 01:30:35;;;;;;;48.60;29.40;;;;;;;-128.00;-1.00;-1.00;105608;1253;1046621;-77
2023/05/26 01:33:02;;;;;;;50.90;30.90;;;;;;;-128.00;-1.00;-1.00;105518;1253;1004434;-76
2023/05/26 01:35:29;;;;;;;53.50;31.90;;;;;;;-128.00;-1.00;-1.00;105606;1252;1004214;-77
2023/05/26 01:37:55;;;;;;;49.90;30.60;;;;;;;-128.00;-1.00;-1.00;105731;1254;1005090;-77
2023/05/26 01:40:22;;;;;;;46.60;29.80;;;;;;;-128.00;-1.00;-1.00;105720;1254;1004996;-78
2023/05/26 01:43:03;;;;;;;48.50;29.80;;;;;;;-128.00;-1.00;-1.00;105584;1253;1003800;-79
2023/05/26 01:45:59;;;;;;;46.10;30.70;;;;;;;-128.00;-1.00;-1.00;105623;1254;1047200;-79
2023/05/26 01:48:26;;;;;;;48.50;30.30;;;;;;;-128.00;-1.00;-1.00;105556;1254;1061416;-77
2023/05/26 01:50:55;;;;;;;47.70;28.40;;;;;;;-128.00;-1.00;-1.00;105569;1254;1003880;-77
2023/05/26 01:53:25;;;;;;;47.00;30.30;;;;;;;-128.00;-1.00;-1.00;105547;1258;1059775;-79
2023/05/26 01:55:52;;;;;;;50.10;29.50;;;;;;;-128.00;-1.00;-1.00;105426;1254;1046857;-79
2023/05/26 01:58:18;;;;;;;51.20;29.40;;;;;;;-128.00;-1.00;-1.00;105551;1254;1003636;-79
2023/05/26 02:00:46;;;;;;;45.90;30.60;;;;;;;-128.00;-1.00;-1.00;105469;1253;1004231;-79
2023/05/26 02:03:13;;;;;;;48.50;29.20;;;;;;;-128.00;-1.00;-1.00;105433;1253;1004834;-79
2023/05/26 02:05:40;;;;;;;45.10;28.60;;;;;;;-128.00;-1.00;-1.00;105317;1253;1003675;-79
2023/05/26 02:08:06;;;;;;;49.50;30.00;;;;;;;-128.00;-1.00;-1.00;105456;1253;1004078;-77
2023/05/26 02:10:33;;;;;;;48.60;30.20;;;;;;;-128.00;-1.00;-1.00;105480;1253;1005585;-77
2023/05/26 02:12:59;;;;;;;59.70;29.80;;;;;;;-128.00;-1.00;-1.00;105468;1253;1004656;-77
2023/05/26 02:15:25;;;;;;;47.80;28.40;;;;;;;-128.00;-1.00;-1.00;105475;1253;1005001;-77
2023/05/26 02:17:54;;;;;;;50.80;29.00;;;;;;;-128.00;-1.00;-1.00;105426;1253;1004586;-77
2023/05/26 02:20:21;;;;;;;46.50;29.20;;;;;;;-128.00;-1.00;-1.00;105337;1253;1004990;-77
2023/05/26 02:22:47;;;;;;;43.30;26.00;;;;;;;-128.00;-1.00;-1.00;105366;1253;1004446;-79
2023/05/26 02:25:13;;;;;;;43.60;28.40;;;;;;;-128.00;-1.00;-1.00;105368;1253;1004743;-78
2023/05/26 02:27:40;;;;;;;47.00;28.60;;;;;;;-128.00;-1.00;-1.00;105347;1253;1006120;-79
2023/05/26 02:30:07;;;;;;;48.90;29.00;;;;;;;-128.00;-1.00;-1.00;105396;1253;1004715;-79
2023/05/26 02:32:37;;;;;;;44.50;27.90;;;;;;;-128.00;-1.00;-1.00;105636;1253;1004811;-79
2023/05/26 02:35:04;;;;;;;47.90;28.70;;;;;;;-128.00;-1.00;-1.00;105734;1254;1047520;-77
2023/05/26 02:37:30;;;;;;;46.90;28.40;;;;;;;-128.00;-1.00;-1.00;105723;1252;1005011;-78
2023/05/26 02:39:56;;;;;;;48.40;30.00;;;;;;;-128.00;-1.00;-1.00;105721;1253;1004007;-76
2023/05/26 02:42:23;;;;;;;50.10;32.20;;;;;;;-128.00;-1.00;-1.00;105600;1253;1003964;-77
2023/05/26 02:44:50;;;;;;;50.30;29.30;;;;;;;-128.00;-1.00;-1.00;105744;1252;1004035;-77
2023/05/26 02:47:16;;;;;;;45.60;29.00;;;;;;;-128.00;-1.00;-1.00;105743;1253;1004231;-79
2023/05/26 02:49:43;;;;;;;50.30;30.20;;;;;;;-128.00;-1.00;-1.00;105673;1253;1005103;-79
2023/05/26 02:52:09;;;;;;;50.60;28.50;;;;;;;-128.00;-1.00;-1.00;105666;1253;1004422;-77
2023/05/26 02:54:36;;;;;;;50.20;29.40;;;;;;;-128.00;-1.00;-1.00;105674;1253;1004502;-77
2023/05/26 02:57:02;;;;;;;45.70;27.90;;;;;;;-128.00;-1.00;-1.00;105652;1253;1004117;-76
2023/05/26 02:59:29;;;;;;;42.90;28.30;;;;;;;-128.00;-1.00;-1.00;105709;1253;1004802;-77
2023/05/26 03:01:55;;;;;;;46.60;26.30;;;;;;;-128.00;-1.00;-1.00;105691;1254;1004364;-76
2023/05/26 03:04:21;;;;;;;50.90;29.70;;;;;;;-128.00;-1.00;-1.00;105652;1253;1005302;-78
2023/05/26 03:06:48;;;;;;;48.20;27.30;;;;;;;-128.00;-1.00;-1.00;105668;1253;1004963;-79
2023/05/26 03:09:14;;;;;;;50.30;30.00;;;;;;;-128.00;-1.00;-1.00;105540;1252;1004297;-80
2023/05/26 03:11:41;;;;;;;51.30;29.60;;;;;;;-128.00;-1.00;-1.00;105668;1253;1003865;-79
2023/05/26 03:14:07;;;;;;;52.40;28.70;;;;;;;-128.00;-1.00;-1.00;105680;1253;1004684;-77
2023/05/26 03:16:33;;;;;;;52.50;30.40;;;;;;;-128.00;-1.00;-1.00;105643;1253;1004132;-77
2023/05/26 03:19:00;;;;;;;42.20;27.70;;;;;;;-128.00;-1.00;-1.00;105671;1252;1004811;-79
2023/05/26 03:21:27;;;;;;;47.10;28.80;;;;;;;-128.00;-1.00;-1.00;105667;1253;1004895;-79
2023/05/26 03:23:54;;;;;;;54.60;31.80;;;;;;;-128.00;-1.00;-1.00;105665;1253;1003877;-77
2023/05/26 03:26:22;;;;;;;51.20;30.20;;;;;;;-128.00;-1.00;-1.00;105679;1253;1003928;-76
2023/05/26 03:28:48;;;;;;;50.50;29.60;;;;;;;-128.00;-1.00;-1.00;105663;1253;1004334;-77
2023/05/26 03:31:14;;;;;;;51.30;30.80;;;;;;;-128.00;-1.00;-1.00;105682;1252;1004080;-79
2023/05/26 03:33:41;;;;;;;46.00;29.70;;;;;;;-128.00;-1.00;-1.00;105706;1254;1004669;-76
2023/05/26 03:36:08;;;;;;;59.50;33.60;;;;;;;-128.00;-1.00;-1.00;105571;1253;1004031;-77
2023/05/26 03:38:35;;;;;;;50.70;29.60;;;;;;;-128.00;-1.00;-1.00;105531;1253;1004222;-77
2023/05/26 03:41:01;;;;;;;62.60;34.00;;;;;;;-128.00;-1.00;-1.00;105490;1253;1005269;-79
2023/05/26 03:43:27;;;;;;;52.00;33.80;;;;;;;-128.00;-1.00;-1.00;105539;1253;1005416;-76
2023/05/26 03:45:54;;;;;;;56.70;32.50;;;;;;;-128.00;-1.00;-1.00;105497;1252;1003796;-79
2023/05/26 03:48:21;;;;;;;64.10;35.60;;;;;;;-128.00;-1.00;-1.00;105494;1252;1003312;-78
2023/05/26 03:50:47;;;;;;;60.30;35.70;;;;;;;-128.00;-1.00;-1.00;105451;1253;1003999;-77
2023/05/26 03:53:14;;;;;;;62.00;34.10;;;;;;;-128.00;-1.00;-1.00;105478;1252;1004277;-76
2023/05/26 03:55:40;;;;;;;56.30;31.70;;;;;;;-128.00;-1.00;-1.00;105444;1253;1005802;-77
2023/05/26 03:58:07;;;;;;;56.60;34.00;;;;;;;-128.00;-1.00;-1.00;105455;1253;1004848;-79
2023/05/26 04:00:34;;;;;;;53.40;30.20;;;;;;;-128.00;-1.00;-1.00;105337;1252;1005122;-79
2023/05/26 04:03:00;;;;;;;49.50;30.50;;;;;;;-128.00;-1.00;-1.00;105457;1253;1004182;-77
2023/05/26 04:05:27;;;;;;;48.00;28.60;;;;;;;-128.00;-1.00;-1.00;105474;1254;1004223;-79
2023/05/26 04:07:53;;;;;;;49.50;30.70;;;;;;;-128.00;-1.00;-1.00;105319;1253;1003838;-79
2023/05/26 04:10:20;;;;;;;55.00;29.80;;;;;;;-128.00;-1.00;-1.00;105433;1253;1005243;-78
2023/05/26 04:12:46;;;;;;;47.70;26.90;;;;;;;-128.00;-1.00;-1.00;105494;1254;1004842;-76
2023/05/26 04:15:12;;;;;;;46.80;29.20;;;;;;;-128.00;-1.00;-1.00;105439;1253;1004371;-79
2023/05/26 04:17:39;;;;;;;43.60;27.50;;;;;;;-128.00;-1.00;-1.00;105556;1253;1004595;-79
2023/05/26 04:20:13;;;;;;;45.10;30.10;;;;;;;-128.00;-1.00;-1.00;105474;1253;1004300;-76
2023/05/26 04:22:40;;;;;;;42.40;26.10;;;;;;;-128.00;-1.00;-1.00;105484;1253;1046410;-76
2023/05/26 04:25:07;;;;;;;46.70;29.10;;;;;;;-128.00;-1.00;-1.00;105466;1253;1004645;-79
2023/05/26 04:27:37;;;;;;;43.30;28.10;;;;;;;-128.00;-1.00;-1.00;105466;1254;1004081;-79
2023/05/26 04:30:04;;;;;;;50.60;30.70;;;;;;;-128.00;-1.00;-1.00;105443;1253;1059083;-76
2023/05/26 04:32:33;;;;;;;43.40;28.20;;;;;;;-128.00;-1.00;-1.00;105485;1253;1004440;-79
2023/05/26 04:35:00;;;;;;;41.70;26.50;;;;;;;-128.00;-1.00;-1.00;105478;1254;1046449;-79
2023/05/26 04:37:26;;;;;;;40.10;26.70;;;;;;;-128.00;-1.00;-1.00;105530;1253;1003650;-77
2023/05/26 04:39:53;;;;;;;42.60;28.80;;;;;;;-128.00;-1.00;-1.00;105502;1253;1005409;-79
2023/05/26 04:42:20;;;;;;;48.30;29.60;;;;;;;-128.00;-1.00;-1.00;105537;1254;1004793;-77
2023/05/26 04:44:46;;;;;;;42.40;27.00;;;;;;;-128.00;-1.00;-1.00;105510;1253;1003992;-79
2023/05/26 04:47:13;;;;;;;43.80;28.40;;;;;;;-128.00;-1.00;-1.00;105518;1254;1003357;-77
2023/05/26 04:49:40;;;;;;;40.20;26.80;;;;;;;-128.00;-1.00;-1.00;105485;1253;1004905;-77
2023/05/26 04:52:08;;;;;;;43.60;29.30;;;;;;;-128.00;-1.00;-1.00;105498;1253;1004585;-77
2023/05/26 04:54:40;;;;;;;46.50;26.10;;;;;;;-128.00;-1.00;-1.00;105471;1253;1003668;-79
2023/05/26 04:57:07;;;;;;;46.10;28.00;;;;;;;-128.00;-1.00;-1.00;105457;1253;1059403;-77
2023/05/26 04:59:34;;;;;;;42.70;28.20;;;;;;;-128.00;-1.00;-1.00;105455;1253;1004884;-77
2023/05/26 05:02:00;;;;;;;46.00;28.80;;;;;;;-128.00;-1.00;-1.00;105413;1253;1004118;-77
2023/05/26 05:04:26;;;;;;;47.00;28.90;;;;;;;-128.00;-1.00;-1.00;105460;1253;1004151;-77
2023/05/26 05:06:54;;;;;;;43.40;28.00;;;;;;;-128.00;-1.00;-1.00;105469;1253;1004711;-79
2023/05/26 05:09:21;;;;;;;39.20;26.90;;;;;;;-128.00;-1.00;-1.00;105433;1253;1006100;-77
2023/05/26 05:11:47;;;;;;;35.20;25.10;;;;;;;-128.00;-1.00;-1.00;105411;1253;1003932;-77
2023/05/26 05:14:14;;;;;;;35.70;25.50;;;;;;;-128.00;-1.00;-1.00;105454;1253;1004681;-77
2023/05/26 05:16:41;;;;;;;52.00;26.30;;;;;;;-128.00;-1.00;-1.00;105467;1253;1004776;-80
2023/05/26 05:19:08;;;;;;;37.20;26.30;;;;;;;-128.00;-1.00;-1.00;105452;1253;1005339;-79
2023/05/26 05:21:34;;;;;;;34.70;25.60;;;;;;;-128.00;-1.00;-1.00;105386;1253;1004806;-79
2023/05/26 05:24:01;;;;;;;36.10;25.60;;;;;;;-128.00;-1.00;-1.00;105431;1252;1004228;-79
2023/05/26 05:26:28;;;;;;;46.40;27.00;;;;;;;-128.00;-1.00;-1.00;105313;1252;1004458;-79
2023/05/26 05:28:54;;;;;;;34.40;25.70;;;;;;;-128.00;-1.00;-1.00;105464;1253;1004445;-77
2023/05/26 05:31:21;;;;;;;33.30;24.20;;;;;;;-128.00;-1.00;-1.00;105482;1253;1004575;-77
2023/05/26 05:33:48;;;;;;;38.10;29.90;;;;;;;-128.00;-1.00;-1.00;105180;1252;1004265;-77
2023/05/26 05:36:14;;;;;;;38.10;26.00;;;;;;;-128.00;-1.00;-1.00;105459;1253;1003906;-77
2023/05/26 05:38:41;;;;;;;41.80;27.30;;;;;;;-128.00;-1.00;-1.00;105482;1253;1003874;-76
2023/05/26 05:41:08;;;;;;;35.20;25.10;;;;;;;-128.00;-1.00;-1.00;105448;1253;1005321;-77
2023/05/26 05:43:35;;;;;;;46.80;26.30;;;;;;;-128.00;-1.00;-1.00;105419;1253;1003991;-77
2023/05/26 05:46:01;;;;;;;35.30;25.50;;;;;;;-128.00;-1.00;-1.00;105396;1254;1005889;-79
2023/05/26 05:48:28;;;;;;;33.80;24.00;;;;;;;-128.00;-1.00;-1.00;105419;1253;1004278;-77
2023/05/26 05:50:54;;;;;;;33.40;23.30;;;;;;;-128.00;-1.00;-1.00;105464;1253;1003898;-80
2023/05/26 05:53:21;;;;;;;37.30;24.90;;;;;;;-128.00;-1.00;-1.00;105352;1253;1004521;-77
2023/05/26 05:55:47;;;;;;;38.30;24.40;;;;;;;-128.00;-1.00;-1.00;105459;1254;1004510;-77
2023/05/26 05:58:14;;;;;;;44.90;26.80;;;;;;;-128.00;-1.00;-1.00;105467;1253;1004899;-79
2023/05/26 06:00:41;;;;;;;37.60;25.50;;;;;;;-128.00;-1.00;-1.00;105383;1253;1003525;-77
2023/05/26 06:03:07;;;;;;;35.50;25.00;;;;;;;-128.00;-1.00;-1.00;105418;1252;1004448;-77
2023/05/26 06:05:33;;;;;;;36.00;21.90;;;;;;;-128.00;-1.00;-1.00;105471;1253;1005115;-79
2023/05/26 06:08:00;;;;;;;30.10;22.40;;;;;;;-128.00;-1.00;-1.00;105368;1253;1003791;-77
2023/05/26 06:10:27;;;;;;;31.60;22.30;;;;;;;-128.00;-1.00;-1.00;105441;1253;1005372;-77
2023/05/26 06:12:53;;;;;;;30.10;21.10;;;;;;;-128.00;-1.00;-1.00;105369;1253;1004427;-80
2023/05/26 06:15:20;;;;;;;30.30;23.10;;;;;;;-128.00;-1.00;-1.00;105368;1253;1004852;-80
2023/05/26 06:17:46;;;;;;;33.70;21.60;;;;;;;-128.00;-1.00;-1.00;105485;1253;1003702;-77
2023/05/26 06:20:13;;;;;;;28.50;20.00;;;;;;;-128.00;-1.00;-1.00;105401;1256;1005328;-80
2023/05/26 06:22:39;;;;;;;28.70;21.10;;;;;;;-128.00;-1.00;-1.00;105384;1253;1004731;-79
2023/05/26 06:25:06;;;;;;;26.70;19.10;;;;;;;-128.00;-1.00;-1.00;105363;1253;1004853;-78
2023/05/26 06:27:32;;;;;;;25.20;19.40;;;;;;;-128.00;-1.00;-1.00;105454;1252;1003803;-77
2023/05/26 06:29:59;;;;;;;27.10;19.90;;;;;;;-128.00;-1.00;-1.00;105440;1253;1004962;-77
2023/05/26 06:32:26;;;;;;;30.70;18.00;;;;;;;-128.00;-1.00;-1.00;105343;1253;1004021;-77
2023/05/26 06:34:52;;;;;;;28.20;17.90;;;;;;;-128.00;-1.00;-1.00;105233;1254;1003941;-80
2023/05/26 06:37:19;;;;;;;23.50;17.70;;;;;;;-128.00;-1.00;-1.00;105409;1252;1005372;-77
2023/05/26 06:39:45;;;;;;;26.70;18.10;;;;;;;-128.00;-1.00;-1.00;105366;1254;1004907;-77
2023/05/26 06:42:11;;;;;;;30.50;19.00;;;;;;;-128.00;-1.00;-1.00;105389;1253;1004076;-77
2023/05/26 06:44:38;;;;;;;29.80;19.50;;;;;;;-128.00;-1.00;-1.00;105449;1252;1004843;-79
2023/05/26 06:47:04;;;;;;;24.90;17.50;;;;;;;-128.00;-1.00;-1.00;105382;1254;1003853;-80
2023/05/26 06:49:31;;;;;;;27.30;18.00;;;;;;;-128.00;-1.00;-1.00;105431;1254;1005786;-77
2023/05/26 06:51:57;;;;;;;28.40;17.30;;;;;;;-128.00;-1.00;-1.00;105416;1253;1005417;-77
2023/05/26 06:54:24;;;;;;;24.90;16.90;;;;;;;-128.00;-1.00;-1.00;105347;1253;1004005;-77
2023/05/26 06:56:50;;;;;;;28.50;16.90;;;;;;;-128.00;-1.00;-1.00;105394;1252;1003876;-79
2023/05/26 06:59:16;;;;;;;24.70;18.20;;;;;;;-128.00;-1.00;-1.00;105410;1252;1003741;-79
2023/05/26 07:01:43;;;;;;;21.70;17.00;;;;;;;-128.00;-1.00;-1.00;105313;1253;1047425;-80
2023/05/26 07:04:10;;;;;;;25.10;17.90;;;;;;;-128.00;-1.00;-1.00;105253;1253;1004968;-80
2023/05/26 07:06:36;;;;;;;23.70;15.90;;;;;;;-128.00;-1.00;-1.00;105398;1253;1003655;-79
2023/05/26 07:09:03;;;;;;;22.90;17.70;;;;;;;-128.00;-1.00;-1.00;105267;1252;1004532;-77
2023/05/26 07:11:29;;;;;;;24.20;18.20;;;;;;;-128.00;-1.00;-1.00;105317;1253;1003930;-77
2023/05/26 07:13:56;;;;;;;22.50;16.00;;;;;;;-128.00;-1.00;-1.00;105369;1252;1004276;-77
2023/05/26 07:16:22;;;;;;;22.80;16.60;;;;;;;-128.00;-1.00;-1.00;105351;1253;1004555;-77
2023/05/26 07:18:49;;;;;;;23.60;16.00;;;;;;;-128.00;-1.00;-1.00;105367;1253;1004602;-80
2023/05/26 07:21:17;;;;;;;30.70;16.80;;;;;;;-128.00;-1.00;-1.00;105373;1254;1005165;-77
2023/05/26 07:23:44;;;;;;;21.50;16.30;;;;;;;-128.00;-1.00;-1.00;105389;1252;1003694;-80
2023/05/26 07:26:11;;;;;;;22.00;15.00;;;;;;;-128.00;-1.00;-1.00;105441;1254;1004129;-80
2023/05/26 07:28:37;;;;;;;23.60;15.60;;;;;;;-128.00;-1.00;-1.00;105384;1253;1005093;-80
2023/05/26 07:31:04;;;;;;;21.30;15.10;;;;;;;-128.00;-1.00;-1.00;105410;1253;1005809;-78
2023/05/26 07:33:30;;;;;;;23.80;14.10;;;;;;;-128.00;-1.00;-1.00;105227;1253;1005474;-80
2023/05/26 07:35:57;;;;;;;24.60;15.50;;;;;;;-128.00;-1.00;-1.00;105415;1253;1004094;-77
2023/05/26 07:38:24;;;;;;;25.80;15.80;;;;;;;-128.00;-1.00;-1.00;105458;1253;1004024;-80
2023/05/26 07:40:51;;;;;;;20.80;16.20;;;;;;;-128.00;-1.00;-1.00;105444;1253;1004702;-77
2023/05/26 07:43:17;;;;;;;24.40;16.60;;;;;;;-128.00;-1.00;-1.00;105424;1253;1004962;-80
2023/05/26 07:45:43;;;;;;;25.30;17.10;;;;;;;-128.00;-1.00;-1.00;105272;1253;1004636;-77
2023/05/26 07:48:10;;;;;;;24.50;17.80;;;;;;;-128.00;-1.00;-1.00;105445;1252;1004288;-80
2023/05/26 07:50:36;;;;;;;28.70;19.40;;;;;;;-128.00;-1.00;-1.00;105444;1254;1004088;-79
2023/05/26 07:53:03;;;;;;;27.30;20.70;;;;;;;-128.00;-1.00;-1.00;105381;1252;1003197;-78
2023/05/26 07:55:29;;;;;;;27.20;20.50;;;;;;;-128.00;-1.00;-1.00;105361;1253;1005131;-80
2023/05/26 07:57:55;;;;;;;30.60;19.70;;;;;;;-128.00;-1.00;-1.00;105428;1253;1005750;-80
2023/05/26 08:00:22;;;;;;;26.80;17.60;;;;;;;-128.00;-1.00;-1.00;105352;1252;1004472;-77
2023/05/26 08:02:48;;;;;;;27.30;17.80;;;;;;;-128.00;-1.00;-1.00;105350;1254;1005039;-80
2023/05/26 08:05:15;;;;;;;28.80;18.40;;;;;;;-128.00;-1.00;-1.00;105518;1253;1005009;-80
2023/05/26 08:07:41;;;;;;;29.70;18.70;;;;;;;-128.00;-1.00;-1.00;105395;1253;1059855;-80
2023/05/26 08:10:08;;;;;;;27.00;18.20;;;;;;;-128.00;-1.00;-1.00;105459;1253;1004335;-78
2023/05/26 08:12:35;;;;;;;24.70;15.70;;;;;;;-128.00;-1.00;-1.00;105355;1253;1005295;-80
2023/05/26 08:15:14;;;;;;;25.70;16.90;;;;;;;-128.00;-1.00;-1.00;105373;1254;1004342;-80
2023/05/26 08:17:41;;;;;;;26.40;17.40;;;;;;;-128.00;-1.00;-1.00;105145;1253;1059226;-77
2023/05/26 08:20:08;;;;;;;21.70;16.40;;;;;;;-128.00;-1.00;-1.00;105407;1252;1004229;-77
2023/05/26 08:22:35;;;;;;;28.30;18.00;;;;;;;-128.00;-1.00;-1.00;105512;1253;1005010;-80
2023/05/26 08:25:02;;;;;;;27.70;17.20;;;;;;;-128.00;-1.00;-1.00;105458;1253;1005443;-79
2023/05/26 08:27:28;;;;;;;27.70;17.70;;;;;;;-128.00;-1.00;-1.00;105357;1254;1005170;-77
2023/05/26 08:29:54;;;;;;;26.70;18.00;;;;;;;-128.00;-1.00;-1.00;105438;1253;1004597;-77
2023/05/26 08:32:21;;;;;;;24.90;18.10;;;;;;;-128.00;-1.00;-1.00;105334;1253;1004640;-79
2023/05/26 08:34:47;;;;;;;25.40;19.20;;;;;;;-128.00;-1.00;-1.00;105425;1253;1004811;-77
2023/05/26 08:37:15;;;;;;;26.30;18.60;;;;;;;-128.00;-1.00;-1.00;105295;1253;1004674;-80
2023/05/26 08:39:42;;;;;;;23.80;18.00;;;;;;;-128.00;-1.00;-1.00;105419;1253;1005279;-80
2023/05/26 08:42:12;;;;;;;24.70;17.60;;;;;;;-128.00;-1.00;-1.00;105389;1255;1005592;-80
2023/05/26 08:44:39;;;;;;;20.60;16.10;;;;;;;-128.00;-1.00;-1.00;105388;1253;1058901;-80
2023/05/26 08:47:05;;;;;;;19.90;14.70;;;;;;;-128.00;-1.00;-1.00;105396;1254;1004807;-77
2023/05/26 08:49:36;;;;;;;24.60;16.10;;;;;;;-128.00;-1.00;-1.00;105141;1254;1004772;-77
2023/05/26 08:52:06;;;;;;;29.10;22.00;;;;;;;-128.00;-1.00;-1.00;105386;1254;1062327;-77
2023/05/26 08:54:32;;;;;;;30.50;17.20;;;;;;;-128.00;-1.00;-1.00;105360;1253;1057660;-80
2023/05/26 08:56:59;;;;;;;22.60;16.50;;;;;;;-128.00;-1.00;-1.00;105296;1253;1003764;-80
2023/05/26 08:59:25;;;;;;;20.60;16.20;;;;;;;-128.00;-1.00;-1.00;105385;1253;1006547;-80
2023/05/26 09:01:52;;;;;;;20.40;15.10;;;;;;;-128.00;-1.00;-1.00;105224;1254;1005429;-78
2023/05/26 09:04:18;;;;;;;22.40;14.90;;;;;;;-128.00;-1.00;-1.00;105412;1252;1004414;-77
2023/05/26 09:06:45;;;;;;;17.20;13.70;;;;;;;-128.00;-1.00;-1.00;105453;1253;1004665;-80
2023/05/26 09:09:13;;;;;;;21.00;14.60;;;;;;;-128.00;-1.00;-1.00;105174;1252;1004320;-80
2023/05/26 09:11:41;;;;;;;19.30;14.10;;;;;;;-128.00;-1.00;-1.00;105363;1254;1045344;-80
2023/05/26 09:14:11;;;;;;;19.00;14.00;;;;;;;-128.00;-1.00;-1.00;105351;1253;1004467;-80
2023/05/26 09:16:38;;;;;;;20.10;13.70;;;;;;;-128.00;-1.00;-1.00;105552;1253;1061623;-80
2023/05/26 09:19:04;;;;;;;16.20;13.30;;;;;;;-128.00;-1.00;-1.00;105264;1252;1004706;-80
2023/05/26 09:21:30;;;;;;;25.80;16.00;;;;;;;-128.00;-1.00;-1.00;105386;1254;1005686;-77
2023/05/26 09:23:58;;;;;;;19.90;13.00;;;;;;;-128.00;-1.00;-1.00;105412;1253;1004046;-80
2023/05/26 09:26:26;;;;;;;17.20;13.10;;;;;;;-128.00;-1.00;-1.00;105451;1252;1004539;-80
2023/05/26 09:28:53;;;;;;;18.90;12.00;;;;;;;-128.00;-1.00;-1.00;105368;1254;1004067;-80
2023/05/26 09:31:19;;;;;;;16.90;11.70;;;;;;;-128.00;-1.00;-1.00;105400;1254;1004865;-78
2023/05/26 09:33:46;;;;;;;18.50;11.10;;;;;;;-128.00;-1.00;-1.00;105348;1256;1003609;-77
2023/05/26 09:36:15;;;;;;;14.80;9.60;;;;;;;-128.00;-1.00;-1.00;105367;1253;1003694;-80
2023/05/26 09:38:42;;;;;;;13.30;10.90;;;;;;;-128.00;-1.00;-1.00;105408;1253;1003893;-80
2023/05/26 09:41:08;;;;;;;15.50;10.80;;;;;;;-128.00;-1.00;-1.00;105461;1253;1004709;-80
2023/05/26 09:43:36;;;;;;;16.00;10.30;;;;;;;-128.00;-1.00;-1.00;105357;1254;1003933;-77
2023/05/26 09:46:07;;;;;;;17.00;10.90;;;;;;;-128.00;-1.00;-1.00;105422;1255;1004260;-78
2023/05/26 09:48:36;;;;;;;22.80;11.80;;;;;;;-128.00;-1.00;-1.00;105418;1253;1045706;-80
2023/05/26 09:51:03;;;;;;;14.20;10.20;;;;;;;-128.00;-1.00;-1.00;105427;1254;1006141;-78
2023/05/26 09:53:30;;;;;;;13.30;9.50;;;;;;;-128.00;-1.00;-1.00;105450;1253;1004848;-80
2023/05/26 09:55:56;;;;;;;17.60;9.00;;;;;;;-128.00;-1.00;-1.00;105300;1253;1005553;-80
2023/05/26 09:58:23;;;;;;;13.50;8.30;;;;;;;-128.00;-1.00;-1.00;104988;1253;1005301;-80
2023/05/26 10:00:50;;;;;;;12.60;7.70;;;;;;;-128.00;-1.00;-1.00;105384;1254;1004116;-78
2023/05/26 10:03:16;;;;;;;11.90;7.60;;;;;;;-128.00;-1.00;-1.00;105273;1253;1004023;-79
2023/05/26 10:05:47;;;;;;;14.10;8.00;;;;;;;-128.00;-1.00;-1.00;105433;1254;1004123;-80
2023/05/26 10:08:14;;;;;;;12.30;7.40;;;;;;;-128.00;-1.00;-1.00;105333;1253;1058499;-77
2023/05/26 10:10:41;;;;;;;12.20;8.10;;;;;;;-128.00;-1.00;-1.00;105437;1252;1004346;-80
2023/05/26 10:13:07;;;;;;;15.10;9.90;;;;;;;-128.00;-1.00;-1.00;105260;1253;1004144;-79
2023/05/26 10:15:34;;;;;;;17.10;9.90;;;;;;;-128.00;-1.00;-1.00;105408;1254;1003831;-81
2023/05/26 10:18:01;;;;;;;14.30;9.10;;;;;;;-128.00;-1.00;-1.00;105332;1254;1004348;-78
2023/05/26 10:20:29;;;;;;;10.10;7.60;;;;;;;-128.00;-1.00;-1.00;105337;1253;1003479;-78
2023/05/26 10:23:05;;;;;;;13.50;7.70;;;;;;;-128.00;-1.00;-1.00;105625;1253;1004606;-78
2023/05/26 10:25:46;;;;;;;14.80;8.40;;;;;;;-128.00;-1.00;-1.00;105346;1252;1045327;-78
2023/05/26 10:28:30;;;;;;;16.10;9.10;;;;;;;-128.00;-1.00;-1.00;105452;1254;1047448;-80
2023/05/26 10:31:00;;;;;;;19.10;10.60;;;;;;;-128.00;-1.00;-1.00;105400;1253;1062115;-79
2023/05/26 10:33:40;;;;;;;20.50;10.80;;;;;;;-128.00;-1.00;-1.00;105424;1253;1057464;-78
2023/05/26 10:36:13;;;;;;;16.80;11.80;;;;;;;-128.00;-1.00;-1.00;105293;1252;1061306;-80
2023/05/26 10:38:48;;;;;;;19.30;13.00;;;;;;;-128.00;-1.00;-1.00;105355;1253;1044598;-78
2023/05/26 10:41:53;;;;;;;18.70;12.50;;;;;;;-128.00;-1.00;-1.00;105199;1252;1046855;-77
2023/05/26 10:44:39;;;;;;;21.90;12.60;;;;;;;-128.00;-1.00;-1.00;104753;1262;1062019;-78
2023/05/26 10:47:06;;;;;;;19.90;11.20;;;;;;;-128.00;-1.00;-1.00;104807;1262;1057435;-80
2023/05/26 10:49:35;;;;;;;21.40;12.90;;;;;;;-128.00;-1.00;-1.00;105112;1254;1004431;-80
2023/05/26 10:52:12;;;;;;;17.70;11.00;;;;;;;-128.00;-1.00;-1.00;105377;1253;1044794;-80
2023/05/26 10:54:39;;;;;;;14.30;10.80;;;;;;;-128.00;-1.00;-1.00;105427;1254;1047004;-80
2023/05/26 10:57:27;;;;;;;16.70;11.20;;;;;;;-128.00;-1.00;-1.00;105294;1254;1004921;-78
2023/05/26 10:59:53;;;;;;;18.20;12.50;;;;;;;-128.00;-1.00;-1.00;105370;1253;1058648;-80
2023/05/26 11:02:20;;;;;;;19.10;10.50;;;;;;;-128.00;-1.00;-1.00;105436;1253;1004883;-79
2023/05/26 11:04:47;;;;;;;18.00;11.80;;;;;;;-128.00;-1.00;-1.00;105396;1253;1004184;-78